sensor_id;sensor_type;location;lat;lon;timestamp;temperature;humidity
51011;DHT22;37038;50.182;8.624;2023-04-24T00:00:40;11.10;99.90
51011;DHT22;37038;50.182;8.624;2023-04-24T00:03:42;11.20;99.90
51011;DHT22;37038;50.182;8.624;2023-04-24T00:06:39;11.10;99.90
51011;DHT22;37038;50.182;8.624;2023-04-24T00:09:33;11.00;99.90
51011;DHT22;37038;50.182;8.624;2023-04-24T00:12:22;11.20;99.90
51011;DHT22;37038;50.182;8.624;2023-04-24T00:15:25;11.30;99.90
51011;DHT22;37038;50.182;8.624;2023-04-24T00:18:21;11.30;99.90
51011;DHT22;37038;50.182;8.624;2023-04-24T00:21:15;11.20;99.90
51011;DHT22;37038;50.182;8.624;2023-04-24T00:24:17;11.30;99.90
51011;DHT22;37038;50.182;8.624;2023-04-24T00:27:20;11.20;99.90
51011;DHT22;37038;50.182;8.624;2023-04-24T00:30:09;11.30;99.90
51011;DHT22;37038;50.182;8.624;2023-04-24T00:33:01;11.30;99.90
51011;DHT22;37038;50.182;8.624;2023-04-24T00:35:55;11.30;99.90
51011;DHT22;37038;50.182;8.624;2023-04-24T00:38:44;11.30;99.90
51011;DHT22;37038;50.182;8.624;2023-04-24T00:41:36;11.30;99.90
51011;DHT22;37038;50.182;8.624;2023-04-24T00:44:31;11.30;99.90
51011;DHT22;37038;50.182;8.624;2023-04-24T00:47:28;11.30;99.90
51011;DHT22;37038;50.182;8.624;2023-04-24T00:50:32;11.10;99.90
51011;DHT22;37038;50.182;8.624;2023-04-24T00:53:30;11.10;99.90
51011;DHT22;37038;50.182;8.624;2023-04-24T00:56:29;11.10;99.90
51011;DHT22;37038;50.182;8.624;2023-04-24T00:59:26;11.10;99.90
51011;DHT22;37038;50.182;8.624;2023-04-24T01:02:33;11.20;99.90
51011;DHT22;37038;50.182;8.624;2023-04-24T01:05:50;11.10;99.90
51011;DHT22;37038;50.182;8.624;2023-04-24T01:09:09;11.00;99.90
51011;DHT22;37038;50.182;8.624;2023-04-24T01:12:08;11.00;99.90
51011;DHT22;37038;50.182;8.624;2023-04-24T01:18:43;11.00;99.90
51011;DHT22;37038;50.182;8.624;2023-04-24T01:21:41;11.00;99.90
51011;DHT22;37038;50.182;8.624;2023-04-24T01:25:14;11.00;99.90
51011;DHT22;37038;50.182;8.624;2023-04-24T01:28:11;11.00;99.90
51011;DHT22;37038;50.182;8.624;2023-04-24T01:31:10;10.90;99.90
51011;DHT22;37038;50.182;8.624;2023-04-24T01:34:19;10.90;99.90
51011;DHT22;37038;50.182;8.624;2023-04-24T01:37:17;10.90;99.90
51011;DHT22;37038;50.182;8.624;2023-04-24T01:44:14;10.90;99.90
51011;DHT22;37038;50.182;8.624;2023-04-24T01:48:05;10.80;99.90
51011;DHT22;37038;50.182;8.624;2023-04-24T01:51:23;10.80;99.90
51011;DHT22;37038;50.182;8.624;2023-04-24T01:55:30;10.90;99.90
51011;DHT22;37038;50.182;8.624;2023-04-24T02:01:39;10.80;99.90
51011;DHT22;37038;50.182;8.624;2023-04-24T02:04:35;10.80;99.90
51011;DHT22;37038;50.182;8.624;2023-04-24T02:10:51;10.80;99.90
51011;DHT22;37038;50.182;8.624;2023-04-24T02:14:15;10.80;99.90
51011;DHT22;37038;50.182;8.624;2023-04-24T02:17:23;10.80;99.90
51011;DHT22;37038;50.182;8.624;2023-04-24T02:20:25;10.80;99.90
51011;DHT22;37038;50.182;8.624;2023-04-24T02:23:18;10.90;99.90
51011;DHT22;37038;50.182;8.624;2023-04-24T02:26:44;10.80;99.90
51011;DHT22;37038;50.182;8.624;2023-04-24T02:30:16;10.90;99.90
51011;DHT22;37038;50.182;8.624;2023-04-24T02:33:48;10.90;99.90
51011;DHT22;37038;50.182;8.624;2023-04-24T02:36:52;10.90;99.90
51011;DHT22;37038;50.182;8.624;2023-04-24T02:39:52;10.80;99.90
51011;DHT22;37038;50.182;8.624;2023-04-24T02:43:26;10.80;99.90
51011;DHT22;37038;50.182;8.624;2023-04-24T02:46:39;10.80;99.90
51011;DHT22;37038;50.182;8.624;2023-04-24T02:49:36;10.70;99.90
51011;DHT22;37038;50.182;8.624;2023-04-24T02:52:55;10.70;99.90
51011;DHT22;37038;50.182;8.624;2023-04-24T02:56:11;10.70;99.90
51011;DHT22;37038;50.182;8.624;2023-04-24T02:59:15;10.70;99.90
51011;DHT22;37038;50.182;8.624;2023-04-24T03:02:10;10.60;99.90
51011;DHT22;37038;50.182;8.624;2023-04-24T03:05:14;10.60;99.90
51011;DHT22;37038;50.182;8.624;2023-04-24T03:08:27;10.60;99.90
51011;DHT22;37038;50.182;8.624;2023-04-24T03:11:19;10.50;99.90
51011;DHT22;37038;50.182;8.624;2023-04-24T03:14:39;10.50;99.90
51011;DHT22;37038;50.182;8.624;2023-04-24T03:17:27;10.40;99.90
51011;DHT22;37038;50.182;8.624;2023-04-24T03:20:24;10.40;99.90
51011;DHT22;37038;50.182;8.624;2023-04-24T03:23:27;10.40;99.90
51011;DHT22;37038;50.182;8.624;2023-04-24T03:26:23;10.40;99.90
51011;DHT22;37038;50.182;8.624;2023-04-24T03:30:23;10.40;99.90
51011;DHT22;37038;50.182;8.624;2023-04-24T03:33:56;10.40;99.90
51011;DHT22;37038;50.182;8.624;2023-04-24T03:37:24;10.50;99.90
51011;DHT22;37038;50.182;8.624;2023-04-24T03:59:42;10.60;99.90
51011;DHT22;37038;50.182;8.624;2023-04-24T04:07:07;10.60;99.90
51011;DHT22;37038;50.182;8.624;2023-04-24T04:10:20;10.60;99.90
51011;DHT22;37038;50.182;8.624;2023-04-24T04:25:09;10.60;99.90
51011;DHT22;37038;50.182;8.624;2023-04-24T04:28:35;10.50;99.90
51011;DHT22;37038;50.182;8.624;2023-04-24T04:35:37;10.20;99.90
51011;DHT22;37038;50.182;8.624;2023-04-24T04:41:57;10.00;99.90
51011;DHT22;37038;50.182;8.624;2023-04-24T04:45:22;9.90;99.90
51011;DHT22;37038;50.182;8.624;2023-04-24T04:48:24;9.90;99.90
51011;DHT22;37038;50.182;8.624;2023-04-24T04:56:12;9.90;99.90
51011;DHT22;37038;50.182;8.624;2023-04-24T04:59:54;10.50;99.90
51011;DHT22;37038;50.182;8.624;2023-04-24T05:02:50;10.70;99.90
51011;DHT22;37038;50.182;8.624;2023-04-24T05:05:58;10.40;99.90
51011;DHT22;37038;50.182;8.624;2023-04-24T05:09:02;10.50;99.90
51011;DHT22;37038;50.182;8.624;2023-04-24T05:11:53;10.50;99.90
51011;DHT22;37038;50.182;8.624;2023-04-24T05:14:41;10.50;99.90
51011;DHT22;37038;50.182;8.624;2023-04-24T05:17:37;10.70;99.90
51011;DHT22;37038;50.182;8.624;2023-04-24T05:20:44;11.20;99.90
51011;DHT22;37038;50.182;8.624;2023-04-24T05:23:35;11.00;99.90
51011;DHT22;37038;50.182;8.624;2023-04-24T05:26:23;10.80;99.90
51011;DHT22;37038;50.182;8.624;2023-04-24T05:29:25;11.00;99.90
51011;DHT22;37038;50.182;8.624;2023-04-24T05:32:29;11.70;99.90
51011;DHT22;37038;50.182;8.624;2023-04-24T05:35:20;11.70;99.90
51011;DHT22;37038;50.182;8.624;2023-04-24T05:38:14;11.50;99.90
51011;DHT22;37038;50.182;8.624;2023-04-24T05:41:15;11.30;99.90
51011;DHT22;37038;50.182;8.624;2023-04-24T05:44:09;11.20;99.90
51011;DHT22;37038;50.182;8.624;2023-04-24T05:47:39;11.20;99.90
51011;DHT22;37038;50.182;8.624;2023-04-24T05:50:48;11.60;99.90
51011;DHT22;37038;50.182;8.624;2023-04-24T05:57:34;11.60;99.90
51011;DHT22;37038;50.182;8.624;2023-04-24T06:00:59;11.30;99.90
51011;DHT22;37038;50.182;8.624;2023-04-24T06:03:58;11.70;99.90
51011;DHT22;37038;50.182;8.624;2023-04-24T06:12:05;10.10;99.90
51011;DHT22;37038;50.182;8.624;2023-04-24T06:15:54;10.00;99.90
51011;DHT22;37038;50.182;8.624;2023-04-24T06:19:48;10.50;99.90
51011;DHT22;37038;50.182;8.624;2023-04-24T06:22:38;11.10;99.90
51011;DHT22;37038;50.182;8.624;2023-04-24T06:29:35;11.50;99.90
51011;DHT22;37038;50.182;8.624;2023-04-24T06:36:33;11.00;99.90
51011;DHT22;37038;50.182;8.624;2023-04-24T06:39:33;11.10;99.90
51011;DHT22;37038;50.182;8.624;2023-04-24T06:42:37;11.10;99.90
51011;DHT22;37038;50.182;8.624;2023-04-24T06:45:35;11.60;99.90
51011;DHT22;37038;50.182;8.624;2023-04-24T06:48:26;11.80;99.90
51011;DHT22;37038;50.182;8.624;2023-04-24T06:51:33;11.60;99.90
51011;DHT22;37038;50.182;8.624;2023-04-24T06:55:07;11.70;99.90
51011;DHT22;37038;50.182;8.624;2023-04-24T06:58:08;11.00;99.90
51011;DHT22;37038;50.182;8.624;2023-04-24T07:01:19;11.40;99.90
51011;DHT22;37038;50.182;8.624;2023-04-24T07:04:20;11.90;99.90
51011;DHT22;37038;50.182;8.624;2023-04-24T07:07:32;12.20;99.90
51011;DHT22;37038;50.182;8.624;2023-04-24T07:14:08;12.60;99.90
51011;DHT22;37038;50.182;8.624;2023-04-24T07:17:24;12.20;99.90
51011;DHT22;37038;50.182;8.624;2023-04-24T07:20:11;12.80;99.90
51011;DHT22;37038;50.182;8.624;2023-04-24T07:23:08;12.60;99.90
51011;DHT22;37038;50.182;8.624;2023-04-24T07:29:37;12.70;99.90
51011;DHT22;37038;50.182;8.624;2023-04-24T07:32:35;13.60;99.90
51011;DHT22;37038;50.182;8.624;2023-04-24T07:35:31;13.60;99.90
51011;DHT22;37038;50.182;8.624;2023-04-24T07:42:49;12.90;99.90
51011;DHT22;37038;50.182;8.624;2023-04-24T07:46:35;14.10;99.90
51011;DHT22;37038;50.182;8.624;2023-04-24T07:49:39;13.70;99.90
51011;DHT22;37038;50.182;8.624;2023-04-24T07:52:30;13.30;99.90
51011;DHT22;37038;50.182;8.624;2023-04-24T07:55:26;13.00;99.90
51011;DHT22;37038;50.182;8.624;2023-04-24T07:58:20;13.50;99.90
51011;DHT22;37038;50.182;8.624;2023-04-24T08:01:10;12.90;99.90
51011;DHT22;37038;50.182;8.624;2023-04-24T08:04:06;13.30;99.90
51011;DHT22;37038;50.182;8.624;2023-04-24T08:07:13;13.50;99.90
51011;DHT22;37038;50.182;8.624;2023-04-24T08:10:03;12.90;99.90
51011;DHT22;37038;50.182;8.624;2023-04-24T08:13:06;13.70;99.90
51011;DHT22;37038;50.182;8.624;2023-04-24T08:20:04;13.90;99.90
51011;DHT22;37038;50.182;8.624;2023-04-24T08:23:18;13.70;99.90
51011;DHT22;37038;50.182;8.624;2023-04-24T08:26:22;14.20;99.90
51011;DHT22;37038;50.182;8.624;2023-04-24T08:29:16;14.30;99.90
51011;DHT22;37038;50.182;8.624;2023-04-24T08:32:15;14.00;99.90
51011;DHT22;37038;50.182;8.624;2023-04-24T08:35:15;15.00;99.90
51011;DHT22;37038;50.182;8.624;2023-04-24T08:38:07;14.60;99.90
51011;DHT22;37038;50.182;8.624;2023-04-24T08:54:08;11.80;99.90
51011;DHT22;37038;50.182;8.624;2023-04-24T08:57:51;11.60;99.90
51011;DHT22;37038;50.182;8.624;2023-04-24T09:09:30;11.50;99.90
51011;DHT22;37038;50.182;8.624;2023-04-24T09:12:54;11.30;99.90
51011;DHT22;37038;50.182;8.624;2023-04-24T09:16:43;11.40;99.90
51011;DHT22;37038;50.182;8.624;2023-04-24T09:20:08;11.60;99.90
51011;DHT22;37038;50.182;8.624;2023-04-24T09:23:08;11.60;99.90
51011;DHT22;37038;50.182;8.624;2023-04-24T09:26:13;11.30;99.90
51011;DHT22;37038;50.182;8.624;2023-04-24T09:29:03;11.20;99.90
51011;DHT22;37038;50.182;8.624;2023-04-24T09:35:14;11.00;99.90
51011;DHT22;37038;50.182;8.624;2023-04-24T09:38:12;11.20;99.90
51011;DHT22;37038;50.182;8.624;2023-04-24T09:41:20;11.20;99.90
51011;DHT22;37038;50.182;8.624;2023-04-24T09:44:14;11.20;99.90
51011;DHT22;37038;50.182;8.624;2023-04-24T09:47:08;11.30;99.90
51011;DHT22;37038;50.182;8.624;2023-04-24T09:50:12;11.10;99.90
51011;DHT22;37038;50.182;8.624;2023-04-24T09:53:24;11.10;99.90
51011;DHT22;37038;50.182;8.624;2023-04-24T09:56:19;11.00;99.90
51011;DHT22;37038;50.182;8.624;2023-04-24T09:59:27;11.00;99.90
51011;DHT22;37038;50.182;8.624;2023-04-24T10:02:19;11.00;99.90
51011;DHT22;37038;50.182;8.624;2023-04-24T10:05:11;10.90;99.90
51011;DHT22;37038;50.182;8.624;2023-04-24T10:10:52;11.10;99.90
51011;DHT22;37038;50.182;8.624;2023-04-24T10:13:41;11.20;99.90
51011;DHT22;37038;50.182;8.624;2023-04-24T10:16:29;11.50;99.90
51011;DHT22;37038;50.182;8.624;2023-04-24T10:19:23;11.60;99.90
51011;DHT22;37038;50.182;8.624;2023-04-24T10:22:15;11.40;99.90
51011;DHT22;37038;50.182;8.624;2023-04-24T10:25:05;11.30;99.90
51011;DHT22;37038;50.182;8.624;2023-04-24T10:28:03;11.00;99.90
51011;DHT22;37038;50.182;8.624;2023-04-24T10:30:54;10.80;99.90
51011;DHT22;37038;50.182;8.624;2023-04-24T10:33:59;10.80;99.90
51011;DHT22;37038;50.182;8.624;2023-04-24T10:37:09;10.40;99.90
51011;DHT22;37038;50.182;8.624;2023-04-24T10:39:59;9.80;99.90
51011;DHT22;37038;50.182;8.624;2023-04-24T10:42:48;9.70;99.90
51011;DHT22;37038;50.182;8.624;2023-04-24T10:52:50;10.80;99.90
51011;DHT22;37038;50.182;8.624;2023-04-24T10:59:03;12.70;99.90
51011;DHT22;37038;50.182;8.624;2023-04-24T11:02:03;12.30;99.90
51011;DHT22;37038;50.182;8.624;2023-04-24T11:06:02;12.40;99.90
51011;DHT22;37038;50.182;8.624;2023-04-24T11:16:45;12.00;99.90
51011;DHT22;37038;50.182;8.624;2023-04-24T11:19:41;11.80;99.90
51011;DHT22;37038;50.182;8.624;2023-04-24T11:22:38;12.00;99.90
51011;DHT22;37038;50.182;8.624;2023-04-24T11:26:12;12.00;99.90
51011;DHT22;37038;50.182;8.624;2023-04-24T11:29:14;12.50;99.90
51011;DHT22;37038;50.182;8.624;2023-04-24T11:35:18;15.50;99.90
51011;DHT22;37038;50.182;8.624;2023-04-24T11:38:13;12.90;99.90
51011;DHT22;37038;50.182;8.624;2023-04-24T11:41:19;12.20;99.90
51011;DHT22;37038;50.182;8.624;2023-04-24T11:44:53;12.20;99.90
51011;DHT22;37038;50.182;8.624;2023-04-24T11:47:56;11.60;99.90
51011;DHT22;37038;50.182;8.624;2023-04-24T11:51:45;12.30;99.90
51011;DHT22;37038;50.182;8.624;2023-04-24T11:54:52;13.50;99.90
51011;DHT22;37038;50.182;8.624;2023-04-24T11:57:52;13.00;99.90
51011;DHT22;37038;50.182;8.624;2023-04-24T12:01:17;12.90;99.90
51011;DHT22;37038;50.182;8.624;2023-04-24T12:04:06;13.30;99.90
51011;DHT22;37038;50.182;8.624;2023-04-24T12:07:03;13.70;99.90
51011;DHT22;37038;50.182;8.624;2023-04-24T12:10:02;14.10;99.90
51011;DHT22;37038;50.182;8.624;2023-04-24T12:12:56;12.70;99.90
51011;DHT22;37038;50.182;8.624;2023-04-24T12:16:49;12.80;99.90
51011;DHT22;37038;50.182;8.624;2023-04-24T12:26:28;10.80;99.90
51011;DHT22;37038;50.182;8.624;2023-04-24T12:32:58;11.90;99.90
51011;DHT22;37038;50.182;8.624;2023-04-24T12:36:02;13.90;99.90
51011;DHT22;37038;50.182;8.624;2023-04-24T12:43:25;14.30;99.90
51011;DHT22;37038;50.182;8.624;2023-04-24T12:47:36;12.30;99.90
51011;DHT22;37038;50.182;8.624;2023-04-24T12:56:13;14.20;99.90
51011;DHT22;37038;50.182;8.624;2023-04-24T12:59:07;14.70;99.90
51011;DHT22;37038;50.182;8.624;2023-04-24T13:02:05;15.10;99.90
51011;DHT22;37038;50.182;8.624;2023-04-24T13:05:07;15.40;99.90
51011;DHT22;37038;50.182;8.624;2023-04-24T13:08:01;14.50;99.90
51011;DHT22;37038;50.182;8.624;2023-04-24T13:10:49;13.20;99.90
51011;DHT22;37038;50.182;8.624;2023-04-24T13:13:57;13.30;99.90
51011;DHT22;37038;50.182;8.624;2023-04-24T13:17:04;13.30;99.90
51011;DHT22;37038;50.182;8.624;2023-04-24T13:36:45;13.30;99.90
51011;DHT22;37038;50.182;8.624;2023-04-24T13:39:34;10.80;99.90
51011;DHT22;37038;50.182;8.624;2023-04-24T13:42:27;10.40;99.90
51011;DHT22;37038;50.182;8.624;2023-04-24T13:45:16;11.50;99.90
51011;DHT22;37038;50.182;8.624;2023-04-24T13:48:10;12.90;99.90
51011;DHT22;37038;50.182;8.624;2023-04-24T13:51:00;13.60;99.90
51011;DHT22;37038;50.182;8.624;2023-04-24T13:53:49;14.40;99.90
51011;DHT22;37038;50.182;8.624;2023-04-24T13:56:40;13.70;99.90
51011;DHT22;37038;50.182;8.624;2023-04-24T13:59:28;13.60;99.90
51011;DHT22;37038;50.182;8.624;2023-04-24T14:02:15;13.80;99.90
51011;DHT22;37038;50.182;8.624;2023-04-24T14:05:03;13.60;99.90
51011;DHT22;37038;50.182;8.624;2023-04-24T14:07:51;15.30;99.90
51011;DHT22;37038;50.182;8.624;2023-04-24T14:10:42;15.50;99.90
51011;DHT22;37038;50.182;8.624;2023-04-24T14:13:31;15.90;99.90
51011;DHT22;37038;50.182;8.624;2023-04-24T14:16:19;14.80;99.90
51011;DHT22;37038;50.182;8.624;2023-04-24T14:19:09;14.70;99.90
51011;DHT22;37038;50.182;8.624;2023-04-24T14:22:01;15.00;99.90
51011;DHT22;37038;50.182;8.624;2023-04-24T14:25:11;15.80;99.90
51011;DHT22;37038;50.182;8.624;2023-04-24T14:28:13;16.00;99.90
51011;DHT22;37038;50.182;8.624;2023-04-24T14:31:09;14.40;99.90
51011;DHT22;37038;50.182;8.624;2023-04-24T14:33:57;13.90;99.90
51011;DHT22;37038;50.182;8.624;2023-04-24T14:36:47;13.20;99.90
51011;DHT22;37038;50.182;8.624;2023-04-24T14:39:37;13.30;99.90
51011;DHT22;37038;50.182;8.624;2023-04-24T14:42:25;13.20;99.90
51011;DHT22;37038;50.182;8.624;2023-04-24T14:53:52;13.00;99.90
51011;DHT22;37038;50.182;8.624;2023-04-24T14:56:49;13.10;99.90
51011;DHT22;37038;50.182;8.624;2023-04-24T15:07:49;14.50;99.90
51011;DHT22;37038;50.182;8.624;2023-04-24T15:10:37;14.10;99.90
51011;DHT22;37038;50.182;8.624;2023-04-24T15:13:25;14.10;99.90
51011;DHT22;37038;50.182;8.624;2023-04-24T15:16:16;13.70;99.90
51011;DHT22;37038;50.182;8.624;2023-04-24T15:19:04;13.30;99.90
51011;DHT22;37038;50.182;8.624;2023-04-24T15:21:52;13.20;99.90
51011;DHT22;37038;50.182;8.624;2023-04-24T15:24:40;13.30;99.90
51011;DHT22;37038;50.182;8.624;2023-04-24T15:27:29;13.20;99.90
51011;DHT22;37038;50.182;8.624;2023-04-24T15:30:32;13.30;99.90
51011;DHT22;37038;50.182;8.624;2023-04-24T15:33:22;13.10;99.90
51011;DHT22;37038;50.182;8.624;2023-04-24T15:36:11;13.00;99.90
51011;DHT22;37038;50.182;8.624;2023-04-24T15:39:05;13.10;99.90
51011;DHT22;37038;50.182;8.624;2023-04-24T15:41:56;13.30;99.90
51011;DHT22;37038;50.182;8.624;2023-04-24T15:44:44;13.20;99.90
51011;DHT22;37038;50.182;8.624;2023-04-24T15:47:32;13.10;99.90
51011;DHT22;37038;50.182;8.624;2023-04-24T15:50:23;12.90;99.90
51011;DHT22;37038;50.182;8.624;2023-04-24T15:53:14;12.80;99.90
51011;DHT22;37038;50.182;8.624;2023-04-24T15:56:09;12.70;99.90
51011;DHT22;37038;50.182;8.624;2023-04-24T15:58:57;13.10;99.90
51011;DHT22;37038;50.182;8.624;2023-04-24T16:01:54;13.10;99.90
51011;DHT22;37038;50.182;8.624;2023-04-24T16:04:42;13.70;99.90
51011;DHT22;37038;50.182;8.624;2023-04-24T16:07:30;14.70;99.10
51011;DHT22;37038;50.182;8.624;2023-04-24T16:10:18;15.50;96.70
51011;DHT22;37038;50.182;8.624;2023-04-24T16:13:09;14.80;96.10
51011;DHT22;37038;50.182;8.624;2023-04-24T16:15:59;14.40;97.50
51011;DHT22;37038;50.182;8.624;2023-04-24T16:18:47;13.80;97.20
51011;DHT22;37038;50.182;8.624;2023-04-24T16:21:36;13.20;98.90
51011;DHT22;37038;50.182;8.624;2023-04-24T16:24:27;13.50;99.20
51011;DHT22;37038;50.182;8.624;2023-04-24T16:27:24;13.40;99.90
51011;DHT22;37038;50.182;8.624;2023-04-24T16:30:18;13.20;99.70
51011;DHT22;37038;50.182;8.624;2023-04-24T16:33:06;13.00;99.90
51011;DHT22;37038;50.182;8.624;2023-04-24T16:35:57;13.50;99.90
51011;DHT22;37038;50.182;8.624;2023-04-24T16:38:50;13.20;99.90
51011;DHT22;37038;50.182;8.624;2023-04-24T16:41:39;13.50;99.90
51011;DHT22;37038;50.182;8.624;2023-04-24T16:44:29;13.50;99.90
51011;DHT22;37038;50.182;8.624;2023-04-24T16:47:20;13.30;99.90
51011;DHT22;37038;50.182;8.624;2023-04-24T16:50:11;13.00;99.90
51011;DHT22;37038;50.182;8.624;2023-04-24T16:53:14;12.90;99.60
51011;DHT22;37038;50.182;8.624;2023-04-24T16:56:10;12.90;99.90
51011;DHT22;37038;50.182;8.624;2023-04-24T16:59:04;12.70;99.90
51011;DHT22;37038;50.182;8.624;2023-04-24T17:01:54;12.70;99.90
51011;DHT22;37038;50.182;8.624;2023-04-24T17:04:42;12.50;99.90
51011;DHT22;37038;50.182;8.624;2023-04-24T17:07:29;12.50;99.90
51011;DHT22;37038;50.182;8.624;2023-04-24T17:10:28;12.50;99.90
51011;DHT22;37038;50.182;8.624;2023-04-24T17:13:19;12.60;99.90
51011;DHT22;37038;50.182;8.624;2023-04-24T17:16:07;13.70;99.90
51011;DHT22;37038;50.182;8.624;2023-04-24T17:19:04;13.50;99.90
51011;DHT22;37038;50.182;8.624;2023-04-24T17:21:55;13.00;99.90
51011;DHT22;37038;50.182;8.624;2023-04-24T17:24:53;13.30;99.90
51011;DHT22;37038;50.182;8.624;2023-04-24T17:27:41;13.00;99.90
51011;DHT22;37038;50.182;8.624;2023-04-24T17:30:28;13.20;99.90
51011;DHT22;37038;50.182;8.624;2023-04-24T17:33:21;13.40;99.90
51011;DHT22;37038;50.182;8.624;2023-04-24T17:36:09;13.20;99.90
51011;DHT22;37038;50.182;8.624;2023-04-24T17:39:09;12.80;99.90
51011;DHT22;37038;50.182;8.624;2023-04-24T17:42:29;12.80;99.90
51011;DHT22;37038;50.182;8.624;2023-04-24T17:45:17;12.80;99.90
51011;DHT22;37038;50.182;8.624;2023-04-24T17:48:08;12.60;99.90
51011;DHT22;37038;50.182;8.624;2023-04-24T17:50:59;12.60;99.90
51011;DHT22;37038;50.182;8.624;2023-04-24T17:54:06;12.60;99.90
51011;DHT22;37038;50.182;8.624;2023-04-24T17:56:57;12.50;99.90
51011;DHT22;37038;50.182;8.624;2023-04-24T17:59:48;13.00;99.90
51011;DHT22;37038;50.182;8.624;2023-04-24T18:02:53;12.90;99.90
51011;DHT22;37038;50.182;8.624;2023-04-24T18:05:55;12.60;99.90
51011;DHT22;37038;50.182;8.624;2023-04-24T18:08:57;12.50;99.90
51011;DHT22;37038;50.182;8.624;2023-04-24T18:11:45;12.50;99.90
51011;DHT22;37038;50.182;8.624;2023-04-24T18:14:40;12.30;99.90
51011;DHT22;37038;50.182;8.624;2023-04-24T18:17:34;12.20;99.90
51011;DHT22;37038;50.182;8.624;2023-04-24T18:20:29;12.60;99.90
51011;DHT22;37038;50.182;8.624;2023-04-24T18:23:17;12.40;99.90
51011;DHT22;37038;50.182;8.624;2023-04-24T18:26:05;11.90;99.90
51011;DHT22;37038;50.182;8.624;2023-04-24T18:28:53;11.30;99.90
51011;DHT22;37038;50.182;8.624;2023-04-24T18:31:41;11.10;99.90
51011;DHT22;37038;50.182;8.624;2023-04-24T18:34:29;11.00;99.90
51011;DHT22;37038;50.182;8.624;2023-04-24T18:37:28;10.90;99.90
51011;DHT22;37038;50.182;8.624;2023-04-24T18:40:19;10.80;99.90
51011;DHT22;37038;50.182;8.624;2023-04-24T18:43:07;10.80;99.90
51011;DHT22;37038;50.182;8.624;2023-04-24T18:45:58;10.70;99.90
51011;DHT22;37038;50.182;8.624;2023-04-24T18:48:48;10.60;99.90
51011;DHT22;37038;50.182;8.624;2023-04-24T18:51:36;10.70;99.90
51011;DHT22;37038;50.182;8.624;2023-04-24T18:54:53;10.70;99.90
51011;DHT22;37038;50.182;8.624;2023-04-24T18:57:46;10.60;99.90
51011;DHT22;37038;50.182;8.624;2023-04-24T19:00:36;10.60;99.90
51011;DHT22;37038;50.182;8.624;2023-04-24T19:03:25;10.50;99.90
51011;DHT22;37038;50.182;8.624;2023-04-24T19:06:14;10.40;99.90
51011;DHT22;37038;50.182;8.624;2023-04-24T19:09:12;10.30;99.90
51011;DHT22;37038;50.182;8.624;2023-04-24T19:12:18;10.10;99.90
51011;DHT22;37038;50.182;8.624;2023-04-24T19:15:40;9.80;99.90
51011;DHT22;37038;50.182;8.624;2023-04-24T19:18:31;9.50;99.90
51011;DHT22;37038;50.182;8.624;2023-04-24T19:26:16;9.20;99.90
51011;DHT22;37038;50.182;8.624;2023-04-24T19:29:25;9.10;99.90
51011;DHT22;37038;50.182;8.624;2023-04-24T19:32:34;9.10;99.90
51011;DHT22;37038;50.182;8.624;2023-04-24T19:36:03;9.10;99.90
51011;DHT22;37038;50.182;8.624;2023-04-24T19:39:01;9.20;99.90
51011;DHT22;37038;50.182;8.624;2023-04-24T19:41:56;9.20;99.90
51011;DHT22;37038;50.182;8.624;2023-04-24T19:44:53;9.30;99.90
51011;DHT22;37038;50.182;8.624;2023-04-24T19:47:45;9.30;99.90
51011;DHT22;37038;50.182;8.624;2023-04-24T19:50:38;9.40;99.90
51011;DHT22;37038;50.182;8.624;2023-04-24T19:53:37;9.40;99.90
51011;DHT22;37038;50.182;8.624;2023-04-24T22:51:50;8.30;99.90
51011;DHT22;37038;50.182;8.624;2023-04-24T22:54:41;8.30;99.90
51011;DHT22;37038;50.182;8.624;2023-04-24T22:57:29;8.30;99.90
51011;DHT22;37038;50.182;8.624;2023-04-24T23:00:17;8.30;99.90
51011;DHT22;37038;50.182;8.624;2023-04-24T23:03:08;8.20;99.90
51011;DHT22;37038;50.182;8.624;2023-04-24T23:05:59;8.20;99.90
51011;DHT22;37038;50.182;8.624;2023-04-24T23:08:49;8.20;99.90
51011;DHT22;37038;50.182;8.624;2023-04-24T23:11:41;8.20;99.90
51011;DHT22;37038;50.182;8.624;2023-04-24T23:14:32;8.10;99.90
51011;DHT22;37038;50.182;8.624;2023-04-24T23:17:32;8.20;99.90
51011;DHT22;37038;50.182;8.624;2023-04-24T23:20:26;8.20;99.90
51011;DHT22;37038;50.182;8.624;2023-04-24T23:23:24;8.30;99.90
51011;DHT22;37038;50.182;8.624;2023-04-24T23:26:24;8.20;99.90
51011;DHT22;37038;50.182;8.624;2023-04-24T23:29:31;8.30;99.90
51011;DHT22;37038;50.182;8.624;2023-04-24T23:32:21;8.20;99.90
51011;DHT22;37038;50.182;8.624;2023-04-24T23:35:12;8.20;99.90
51011;DHT22;37038;50.182;8.624;2023-04-24T23:38:11;8.20;99.90
51011;DHT22;37038;50.182;8.624;2023-04-24T23:40:59;8.20;99.90
51011;DHT22;37038;50.182;8.624;2023-04-24T23:43:47;8.20;99.90
51011;DHT22;37038;50.182;8.624;2023-04-24T23:46:37;8.10;99.90
51011;DHT22;37038;50.182;8.624;2023-04-24T23:49:31;8.10;99.90
51011;DHT22;37038;50.182;8.624;2023-04-24T23:52:22;8.10;99.90
51011;DHT22;37038;50.182;8.624;2023-04-24T23:55:10;8.10;99.90
51011;DHT22;37038;50.182;8.624;2023-04-24T23:57:58;8.00;99.90
